createdAt,value
2022-10-11T00:00:06.187Z,13.00
2022-10-11T00:01:06.227Z,12.97
2022-10-11T00:02:06.172Z,12.96
2022-10-11T00:03:06.187Z,12.93
2022-10-11T00:04:06.157Z,12.87
2022-10-11T00:05:06.144Z,12.84
2022-10-11T00:06:06.634Z,12.79
2022-10-11T00:07:06.112Z,12.78
2022-10-11T00:08:06.093Z,12.75
2022-10-11T00:09:06.204Z,12.70
2022-10-11T00:10:06.067Z,12.67
2022-10-11T00:11:06.074Z,12.64
2022-10-11T00:12:06.045Z,12.63
2022-10-11T00:13:06.046Z,12.57
2022-10-11T00:14:06.056Z,12.54
2022-10-11T00:15:06.014Z,12.54
2022-10-11T00:16:06.459Z,12.51
2022-10-11T00:17:05.999Z,12.46
2022-10-11T00:18:05.976Z,12.44
2022-10-11T00:19:05.974Z,12.39
2022-10-11T00:20:06.033Z,12.41
2022-10-11T00:21:05.954Z,12.34
2022-10-11T00:22:05.933Z,12.34
2022-10-11T00:23:05.935Z,12.31
2022-10-11T00:24:05.909Z,12.30
2022-10-11T00:25:05.910Z,12.29
2022-10-11T00:26:06.264Z,12.24
2022-10-11T00:27:05.885Z,12.24
2022-10-11T00:28:05.873Z,12.23
2022-10-11T00:29:05.858Z,12.21
2022-10-11T00:30:05.847Z,12.20
2022-10-11T00:31:06.256Z,12.19
2022-10-11T00:32:05.838Z,12.13
2022-10-11T00:33:05.862Z,12.11
2022-10-11T00:34:05.794Z,12.06
2022-10-11T00:35:05.787Z,12.08
2022-10-11T00:36:06.059Z,12.06
2022-10-11T00:37:05.768Z,12.04
2022-10-11T00:38:05.769Z,12.04
2022-10-11T00:39:05.737Z,12.01
2022-10-11T00:40:05.730Z,11.99
2022-10-11T00:41:05.721Z,11.99
2022-10-11T00:42:05.701Z,11.99
2022-10-11T00:43:05.738Z,11.99
2022-10-11T00:44:05.683Z,11.96
2022-10-11T00:45:05.671Z,11.96
2022-10-11T00:46:05.971Z,11.96
2022-10-11T00:47:05.650Z,11.97
2022-10-11T00:48:05.633Z,11.97
2022-10-11T00:49:05.648Z,11.99
2022-10-11T00:50:05.621Z,11.99
2022-10-11T00:51:05.968Z,11.97
2022-10-11T00:52:05.590Z,12.04
2022-10-11T00:53:05.583Z,12.09
2022-10-11T00:54:05.590Z,12.12
2022-10-11T00:55:05.550Z,12.15
2022-10-11T00:56:05.937Z,12.19
2022-10-11T00:57:05.567Z,12.20
2022-10-11T00:58:05.552Z,12.21
2022-10-11T00:59:05.511Z,12.21
2022-10-11T01:00:05.555Z,12.23
2022-10-11T01:01:05.557Z,12.24
2022-10-11T01:02:05.473Z,12.27
2022-10-11T01:03:05.456Z,12.26
2022-10-11T01:04:05.456Z,12.27
2022-10-11T01:05:28.229Z,12.27
2022-10-11T01:06:06.954Z,12.26
2022-10-11T01:07:05.435Z,12.24
2022-10-11T01:08:05.403Z,12.24
2022-10-11T01:09:05.397Z,12.27
2022-10-11T01:10:05.383Z,12.27
2022-10-11T01:11:05.363Z,12.26
2022-10-11T01:12:05.402Z,12.24
2022-10-11T01:13:05.345Z,12.24
2022-10-11T01:14:05.333Z,12.26
2022-10-11T01:15:05.328Z,12.24
2022-10-11T01:16:05.533Z,12.24
2022-10-11T01:17:05.296Z,12.23
2022-10-11T01:18:05.398Z,12.21
2022-10-11T01:19:05.307Z,12.20
2022-10-11T01:20:05.314Z,12.16
2022-10-11T01:21:05.274Z,12.16
2022-10-11T01:22:05.257Z,12.13
2022-10-11T01:23:05.236Z,12.12
2022-10-11T01:24:08.550Z,12.12
2022-10-11T01:25:05.224Z,12.09
2022-10-11T01:26:05.552Z,12.08
2022-10-11T01:27:05.187Z,12.06
2022-10-11T01:28:05.166Z,12.06
2022-10-11T01:29:05.174Z,12.04
2022-10-11T01:30:05.179Z,12.02
2022-10-11T01:31:05.145Z,12.01
2022-10-11T01:32:05.131Z,11.96
2022-10-11T01:33:05.119Z,11.94
2022-10-11T01:34:05.105Z,11.93
2022-10-11T01:35:05.118Z,11.87
2022-10-11T01:36:05.320Z,11.83
2022-10-11T01:37:05.069Z,11.80
2022-10-11T01:38:05.060Z,11.77
2022-10-11T01:39:05.050Z,11.75
2022-10-11T01:40:05.029Z,11.70
2022-10-11T01:41:05.018Z,11.68
2022-10-11T01:42:05.031Z,11.67
2022-10-11T01:43:05.100Z,11.67
2022-10-11T01:44:04.989Z,11.65
2022-10-11T01:45:04.981Z,11.62
2022-10-11T01:46:05.276Z,11.61
2022-10-11T01:47:04.980Z,11.57
2022-10-11T01:48:04.962Z,11.53
2022-10-11T01:49:04.933Z,11.47
2022-10-11T01:50:04.940Z,11.46
2022-10-11T01:51:04.940Z,11.43
2022-10-11T01:52:04.924Z,11.39
2022-10-11T01:53:04.913Z,11.38
2022-10-11T01:54:04.879Z,11.36
2022-10-11T01:55:09.766Z,11.36
2022-10-11T01:56:06.389Z,11.35
2022-10-11T01:57:04.842Z,11.36
2022-10-11T01:58:04.831Z,11.32
2022-10-11T01:59:04.832Z,11.31
2022-10-11T02:00:04.805Z,11.27
2022-10-11T02:01:04.825Z,11.24
2022-10-11T02:02:04.790Z,11.21
2022-10-11T02:03:04.771Z,11.19
2022-10-11T02:04:04.766Z,11.14
2022-10-11T02:05:04.775Z,11.11
2022-10-11T02:06:04.955Z,11.06
2022-10-11T02:07:04.724Z,11.03
2022-10-11T02:08:04.722Z,11.01
2022-10-11T02:09:08.076Z,10.95
2022-10-11T02:10:04.723Z,10.91
2022-10-11T02:11:04.709Z,10.88
2022-10-11T02:12:04.675Z,10.84
2022-10-11T02:13:04.662Z,10.80
2022-10-11T02:14:04.657Z,10.76
2022-10-11T02:15:04.660Z,10.71
2022-10-11T02:16:04.906Z,10.68
2022-10-11T02:17:04.605Z,10.66
2022-10-11T02:18:04.596Z,10.63
2022-10-11T02:19:04.585Z,10.60
2022-10-11T02:20:04.656Z,10.58
2022-10-11T02:21:04.557Z,10.55
2022-10-11T02:22:04.587Z,10.53
2022-10-11T02:23:04.535Z,10.47
2022-10-11T02:24:04.535Z,10.44
2022-10-11T02:25:04.516Z,10.40
2022-10-11T02:26:04.906Z,10.37
2022-10-11T02:27:04.518Z,10.33
2022-10-11T02:28:04.529Z,10.33
2022-10-11T02:29:04.487Z,10.28
2022-10-11T02:30:04.465Z,10.22
2022-10-11T02:31:04.451Z,10.21
2022-10-11T02:32:04.455Z,10.21
2022-10-11T02:33:04.459Z,10.21
2022-10-11T02:34:04.447Z,10.17
2022-10-11T02:35:04.407Z,10.15
2022-10-11T02:36:04.627Z,10.14
2022-10-11T02:37:04.388Z,10.10
2022-10-11T02:38:04.379Z,10.09
2022-10-11T02:39:04.416Z,10.06
2022-10-11T02:40:04.366Z,10.03
2022-10-11T02:41:04.419Z,10.01
2022-10-11T02:42:04.329Z,10.00
2022-10-11T02:43:04.399Z,9.99
2022-10-11T02:44:04.319Z,9.96
2022-10-11T02:45:04.309Z,9.91
2022-10-11T02:46:04.423Z,9.89
2022-10-11T02:47:04.276Z,9.86
2022-10-11T02:48:04.269Z,9.85
2022-10-11T02:49:04.238Z,9.81
2022-10-11T02:50:04.271Z,9.76
2022-10-11T02:51:04.235Z,9.68
2022-10-11T02:52:04.209Z,9.64
2022-10-11T02:53:04.211Z,9.58
2022-10-11T02:54:04.196Z,9.53
2022-10-11T02:55:04.180Z,9.49
2022-10-11T02:56:04.464Z,9.45
2022-10-11T02:57:04.162Z,9.38
2022-10-11T02:58:04.148Z,9.31
2022-10-11T02:59:04.135Z,9.28
2022-10-11T03:00:04.119Z,9.27
2022-10-11T03:01:04.111Z,9.24
2022-10-11T03:02:04.194Z,9.21
2022-10-11T03:03:04.090Z,9.20
2022-10-11T03:04:04.076Z,9.18
2022-10-11T03:05:04.071Z,9.15
2022-10-11T03:06:04.346Z,9.10
2022-10-11T03:07:04.073Z,9.06
2022-10-11T03:08:04.032Z,8.99
2022-10-11T03:09:04.024Z,8.91
2022-10-11T03:10:04.001Z,8.88
2022-10-11T03:11:03.993Z,8.84
2022-10-11T03:12:04.008Z,8.78
2022-10-11T03:13:04.002Z,8.75
2022-10-11T03:14:03.959Z,8.72
2022-10-11T03:15:03.955Z,8.68
2022-10-11T03:16:03.968Z,8.69
2022-10-11T03:17:23.866Z,8.68
2022-10-11T03:18:04.954Z,8.62
2022-10-11T03:19:03.934Z,8.63
2022-10-11T03:20:03.893Z,8.60
2022-10-11T03:21:03.909Z,8.58
2022-10-11T03:22:03.865Z,8.58
2022-10-11T03:23:03.856Z,8.58
2022-10-11T03:24:03.853Z,8.54
2022-10-11T03:25:04.553Z,8.53
2022-10-11T03:26:04.176Z,8.47
2022-10-11T03:27:03.835Z,8.42
2022-10-11T03:28:03.807Z,8.39
2022-10-11T03:29:03.794Z,8.36
2022-10-11T03:30:03.808Z,8.36
2022-10-11T03:31:03.775Z,8.33
2022-10-11T03:32:03.747Z,8.30
2022-10-11T03:33:03.760Z,8.28
2022-10-11T03:34:03.725Z,8.22
2022-10-11T03:35:03.716Z,8.22
2022-10-11T03:36:04.085Z,8.17
2022-10-11T03:37:03.695Z,8.17
2022-10-11T03:38:03.704Z,8.15
2022-10-11T03:39:03.675Z,8.12
2022-10-11T03:40:03.665Z,8.10
2022-10-11T03:41:03.668Z,8.04
2022-10-11T03:42:03.657Z,8.00
2022-10-11T03:43:03.627Z,7.99
2022-10-11T03:44:03.614Z,7.97
2022-10-11T03:45:03.606Z,7.94
2022-10-11T03:46:03.937Z,7.94
2022-10-11T03:47:03.578Z,7.94
2022-10-11T03:48:03.616Z,7.94
2022-10-11T03:49:03.566Z,7.90
2022-10-11T03:50:03.549Z,7.90
2022-10-11T03:51:03.554Z,7.85
2022-10-11T03:52:03.520Z,7.82
2022-10-11T03:53:03.521Z,7.82
2022-10-11T03:54:03.519Z,7.78
2022-10-11T03:55:03.498Z,7.75
2022-10-11T03:56:05.985Z,7.69
2022-10-11T03:57:03.479Z,7.66
2022-10-11T03:58:03.472Z,7.62
2022-10-11T03:59:03.531Z,7.60
2022-10-11T04:00:03.500Z,7.56
2022-10-11T04:01:03.452Z,7.53
2022-10-11T04:02:03.537Z,7.53
2022-10-11T04:03:03.410Z,7.55
2022-10-11T04:04:03.397Z,7.56
2022-10-11T04:05:03.384Z,7.60
2022-10-11T04:06:03.911Z,7.63
2022-10-11T04:07:03.360Z,7.67
2022-10-11T04:08:04.652Z,7.66
2022-10-11T04:09:03.339Z,7.67
2022-10-11T04:10:03.328Z,7.67
2022-10-11T04:11:03.342Z,7.71
2022-10-11T04:12:03.321Z,7.66
2022-10-11T04:13:03.281Z,7.63
2022-10-11T04:14:03.290Z,7.66
2022-10-11T04:15:03.262Z,7.67
2022-10-11T04:16:03.595Z,7.69
2022-10-11T04:17:03.275Z,7.69
2022-10-11T04:18:03.241Z,7.72
2022-10-11T04:19:03.219Z,7.71
2022-10-11T04:20:03.233Z,7.66
2022-10-11T04:21:03.202Z,7.62
2022-10-11T04:22:03.199Z,7.58
2022-10-11T04:23:03.199Z,7.56
2022-10-11T04:24:03.162Z,7.56
2022-10-11T04:25:03.170Z,7.60
2022-10-11T04:26:03.605Z,7.60
2022-10-11T04:27:03.133Z,7.58
2022-10-11T04:28:03.203Z,7.53
2022-10-11T04:29:03.112Z,7.47
2022-10-11T04:30:03.167Z,7.44
2022-10-11T04:31:03.160Z,7.41
2022-10-11T04:32:03.115Z,7.40
2022-10-11T04:33:03.074Z,7.38
2022-10-11T04:34:03.081Z,7.35
2022-10-11T04:35:04.765Z,7.35
2022-10-11T04:36:03.521Z,7.31
2022-10-11T04:37:03.019Z,7.34
2022-10-11T04:38:03.012Z,7.35
2022-10-11T04:39:03.000Z,7.40
2022-10-11T04:40:03.011Z,7.37
2022-10-11T04:41:02.965Z,7.35
2022-10-11T04:42:02.974Z,7.35
2022-10-11T04:43:02.986Z,7.37
2022-10-11T04:44:02.954Z,7.34
2022-10-11T04:45:03.077Z,7.38
2022-10-11T04:46:02.963Z,7.40
2022-10-11T04:47:02.993Z,7.34
2022-10-11T04:48:02.895Z,7.32
2022-10-11T04:49:02.885Z,7.32
2022-10-11T04:50:02.885Z,7.32
2022-10-11T04:51:02.915Z,7.31
2022-10-11T04:52:02.859Z,7.27
2022-10-11T04:53:02.837Z,7.29
2022-10-11T04:54:02.846Z,7.26
2022-10-11T04:55:02.807Z,7.27
2022-10-11T04:56:03.113Z,7.29
2022-10-11T04:57:02.815Z,7.23
2022-10-11T04:58:02.797Z,7.22
2022-10-11T04:59:02.765Z,7.22
2022-10-11T05:00:02.856Z,7.22
2022-10-11T05:01:02.796Z,7.17
2022-10-11T05:02:02.842Z,7.16
2022-10-11T05:03:02.725Z,7.17
2022-10-11T05:04:02.742Z,7.08
2022-10-11T05:05:02.796Z,7.02
2022-10-11T05:06:05.597Z,7.01
2022-10-11T05:07:02.680Z,6.99
2022-10-11T05:08:02.689Z,7.04
2022-10-11T05:09:02.667Z,7.02
2022-10-11T05:10:02.648Z,7.01
2022-10-11T05:11:02.642Z,6.94
2022-10-11T05:12:02.646Z,6.91
2022-10-11T05:13:02.636Z,6.91
2022-10-11T05:14:02.604Z,6.87
2022-10-11T05:15:02.631Z,6.84
2022-10-11T05:16:04.938Z,6.84
2022-10-11T05:17:03.580Z,6.81
2022-10-11T05:18:02.549Z,6.84
2022-10-11T05:19:02.591Z,6.84
2022-10-11T05:20:02.533Z,6.86
2022-10-11T05:21:02.543Z,6.84
2022-10-11T05:22:02.498Z,6.89
2022-10-11T05:23:02.498Z,6.89
2022-10-11T05:24:02.494Z,6.87
2022-10-11T05:25:02.528Z,6.87
2022-10-11T05:26:02.856Z,6.91
2022-10-11T05:27:03.362Z,6.94
2022-10-11T05:28:02.451Z,6.90
2022-10-11T05:29:02.536Z,6.95
2022-10-11T05:30:02.442Z,6.97
2022-10-11T05:31:02.421Z,6.95
2022-10-11T05:32:02.391Z,6.91
2022-10-11T05:33:02.401Z,6.95
2022-10-11T05:34:02.370Z,6.94
2022-10-11T05:35:02.380Z,6.89
2022-10-11T05:36:02.737Z,6.87
2022-10-11T05:37:02.360Z,6.81
2022-10-11T05:38:02.323Z,6.83
2022-10-11T05:39:02.330Z,6.84
2022-10-11T05:40:02.307Z,6.83
2022-10-11T05:41:02.301Z,6.79
2022-10-11T05:42:04.554Z,6.81
2022-10-11T05:43:02.263Z,6.80
2022-10-11T05:44:02.261Z,6.80
2022-10-11T05:45:02.242Z,6.79
2022-10-11T05:46:02.571Z,6.80
2022-10-11T05:47:02.222Z,6.79
2022-10-11T05:48:02.237Z,6.79
2022-10-11T05:49:02.203Z,6.79
2022-10-11T05:50:02.193Z,6.76
2022-10-11T05:51:02.173Z,6.77
2022-10-11T05:52:02.168Z,6.72
2022-10-11T05:53:02.151Z,6.73
2022-10-11T05:54:02.203Z,6.76
2022-10-11T05:55:02.153Z,6.71
2022-10-11T05:56:02.467Z,6.69
2022-10-11T05:57:02.112Z,6.69
2022-10-11T05:58:02.125Z,6.69
2022-10-11T05:59:02.505Z,6.68
2022-10-11T06:00:02.117Z,6.69
2022-10-11T06:01:02.123Z,6.71
2022-10-11T06:02:02.099Z,6.69
2022-10-11T06:03:02.048Z,6.69
2022-10-11T06:04:02.046Z,6.71
2022-10-11T06:05:02.058Z,6.71
2022-10-11T06:06:02.029Z,6.76
2022-10-11T06:07:02.007Z,6.73
2022-10-11T06:08:01.995Z,6.72
2022-10-11T06:09:01.983Z,6.72
2022-10-11T06:10:01.955Z,6.76
2022-10-11T06:11:01.986Z,6.76
2022-10-11T06:12:01.947Z,6.72
2022-10-11T06:13:01.933Z,6.73
2022-10-11T06:14:01.912Z,6.76
2022-10-11T06:15:01.913Z,6.77
2022-10-11T06:16:02.172Z,6.76
2022-10-11T06:17:01.906Z,6.79
2022-10-11T06:18:01.871Z,6.81
2022-10-11T06:19:01.867Z,6.83
2022-10-11T06:20:01.850Z,6.83
2022-10-11T06:21:01.872Z,6.84
2022-10-11T06:22:01.846Z,6.87
2022-10-11T06:23:01.816Z,6.87
2022-10-11T06:24:01.873Z,6.98
2022-10-11T06:25:01.795Z,6.99
2022-10-11T06:26:02.064Z,7.02
2022-10-11T06:27:01.795Z,7.04
2022-10-11T06:28:01.767Z,7.07
2022-10-11T06:29:01.840Z,7.05
2022-10-11T06:30:01.729Z,7.08
2022-10-11T06:31:01.726Z,7.12
2022-10-11T06:32:01.729Z,7.19
2022-10-11T06:33:04.824Z,7.17
2022-10-11T06:34:01.751Z,7.17
2022-10-11T06:35:01.690Z,7.19
2022-10-11T06:36:01.945Z,7.17
2022-10-11T06:37:01.662Z,7.16
2022-10-11T06:38:01.652Z,7.19
2022-10-11T06:39:01.656Z,7.20
2022-10-11T06:40:01.619Z,7.23
2022-10-11T06:41:01.617Z,7.24
2022-10-11T06:42:01.607Z,7.26
2022-10-11T06:43:01.591Z,7.29
2022-10-11T06:44:01.587Z,7.29
2022-10-11T06:45:01.611Z,7.31
2022-10-11T06:46:01.696Z,7.34
2022-10-11T06:47:01.542Z,7.34
2022-10-11T06:48:01.528Z,7.35
2022-10-11T06:49:01.519Z,7.34
2022-10-11T06:50:01.507Z,7.35
2022-10-11T06:51:01.576Z,7.38
2022-10-11T06:52:01.488Z,7.37
2022-10-11T06:53:01.469Z,7.35
2022-10-11T06:54:01.461Z,7.37
2022-10-11T06:55:01.447Z,7.40
2022-10-11T06:56:01.637Z,7.42
2022-10-11T06:57:01.420Z,7.45
2022-10-11T06:58:01.409Z,7.49
2022-10-11T06:59:01.409Z,7.50
2022-10-11T07:00:01.404Z,7.56
2022-10-11T07:01:01.415Z,7.59
2022-10-11T07:02:01.401Z,7.60
2022-10-11T07:03:01.357Z,7.66
2022-10-11T07:04:01.340Z,7.69
2022-10-11T07:05:01.331Z,7.72
2022-10-11T07:06:02.567Z,7.75
2022-10-11T07:07:01.309Z,7.78
2022-10-11T07:08:01.322Z,7.81
2022-10-11T07:09:01.281Z,7.84
2022-10-11T07:10:01.300Z,7.87
2022-10-11T07:11:01.272Z,7.90
2022-10-11T07:12:01.262Z,7.93
2022-10-11T07:13:01.260Z,7.96
2022-10-11T07:14:01.244Z,8.04
2022-10-11T07:15:01.233Z,8.08
2022-10-11T07:16:01.229Z,8.10
2022-10-11T07:17:01.213Z,8.12
2022-10-11T07:18:01.201Z,8.18
2022-10-11T07:19:01.384Z,8.21
2022-10-11T07:20:01.200Z,8.26
2022-10-11T07:21:01.155Z,8.29
2022-10-11T07:22:01.141Z,8.33
2022-10-11T07:23:01.132Z,8.36
2022-10-11T07:24:01.159Z,8.44
2022-10-11T07:25:01.139Z,8.47
2022-10-11T07:26:01.102Z,8.50
2022-10-11T07:27:01.083Z,8.54
2022-10-11T07:28:01.080Z,8.58
2022-10-11T07:29:01.171Z,8.65
2022-10-11T07:30:01.054Z,8.69
2022-10-11T07:31:01.055Z,8.73
2022-10-11T07:32:01.037Z,8.79
2022-10-11T07:33:01.013Z,8.86
2022-10-11T07:34:01.008Z,8.91
2022-10-11T07:35:00.997Z,8.94
2022-10-11T07:36:01.008Z,9.02
2022-10-11T07:37:00.990Z,9.05
2022-10-11T07:38:00.957Z,9.04
2022-10-11T07:39:00.955Z,9.06
2022-10-11T07:40:00.947Z,9.10
2022-10-11T07:41:00.925Z,9.16
2022-10-11T07:42:01.008Z,9.18
2022-10-11T07:43:00.899Z,9.24
2022-10-11T07:44:00.886Z,9.31
2022-10-11T07:45:00.873Z,9.39
2022-10-11T07:46:00.894Z,9.46
2022-10-11T07:47:00.884Z,9.50
2022-10-11T07:48:01.012Z,9.53
2022-10-11T07:49:00.878Z,9.60
2022-10-11T07:50:00.830Z,9.64
2022-10-11T07:51:00.805Z,9.70
2022-10-11T07:52:00.796Z,9.73
2022-10-11T07:53:00.810Z,9.76
2022-10-11T07:54:06.167Z,9.85
2022-10-11T07:55:01.761Z,9.91
2022-10-11T07:56:00.750Z,9.96
2022-10-11T07:57:00.737Z,10.00
2022-10-11T07:58:00.720Z,10.06
2022-10-11T07:59:00.745Z,10.07
2022-10-11T08:00:00.707Z,10.12
2022-10-11T08:01:00.726Z,10.14
2022-10-11T08:02:00.734Z,10.18
2022-10-11T08:03:00.680Z,10.25
2022-10-11T08:04:00.660Z,10.24
2022-10-11T08:05:00.680Z,10.32
2022-10-11T08:06:00.640Z,10.37
2022-10-11T08:07:00.641Z,10.43
2022-10-11T08:08:00.615Z,10.47
2022-10-11T08:09:00.641Z,10.52
2022-10-11T08:10:00.633Z,10.56
2022-10-11T08:11:00.589Z,10.63
2022-10-11T08:12:00.575Z,10.55
2022-10-11T08:13:04.229Z,10.62
2022-10-11T08:14:00.552Z,10.68
2022-10-11T08:15:00.537Z,10.70
2022-10-11T08:16:00.542Z,10.71
2022-10-11T08:17:00.521Z,10.74
2022-10-11T08:18:00.500Z,10.81
2022-10-11T08:19:00.520Z,10.89
2022-10-11T08:20:00.481Z,10.99
2022-10-11T08:21:00.492Z,11.06
2022-10-11T08:22:00.468Z,11.06
2022-10-11T08:23:00.451Z,11.11
2022-10-11T08:24:00.442Z,11.14
2022-10-11T08:25:00.452Z,11.24
2022-10-11T08:26:00.401Z,11.27
2022-10-11T08:27:00.451Z,11.28
2022-10-11T08:28:00.381Z,11.28
2022-10-11T08:29:00.465Z,11.34
2022-10-11T08:30:00.376Z,11.44
2022-10-11T08:31:00.362Z,11.53
2022-10-11T08:32:00.349Z,11.61
2022-10-11T08:33:02.996Z,11.65
2022-10-11T08:34:00.329Z,11.72
2022-10-11T08:35:00.320Z,11.77
2022-10-11T08:36:00.305Z,11.75
2022-10-11T08:37:00.319Z,11.77
2022-10-11T08:38:00.304Z,11.82
2022-10-11T08:39:00.337Z,11.78
2022-10-11T08:40:00.288Z,11.72
2022-10-11T08:41:00.238Z,11.82
2022-10-11T08:42:00.257Z,11.89
2022-10-11T08:43:00.225Z,12.01
2022-10-11T08:44:00.278Z,12.06
2022-10-11T08:45:11.734Z,12.08
2022-10-11T08:46:01.176Z,12.16
2022-10-11T08:47:00.658Z,12.12
2022-10-11T08:48:00.155Z,12.08
2022-10-11T08:49:00.168Z,12.05
2022-10-11T08:50:00.155Z,12.06
2022-10-11T08:51:00.133Z,12.09
2022-10-11T08:52:00.174Z,12.12
2022-10-11T08:53:00.117Z,12.20
2022-10-11T08:54:04.766Z,12.21
2022-10-11T08:55:01.107Z,12.21
2022-10-11T08:56:00.107Z,12.29
2022-10-11T08:57:00.095Z,12.37
2022-10-11T08:58:00.046Z,12.38
2022-10-11T08:59:00.036Z,12.31
2022-10-11T09:00:00.019Z,12.34
2022-10-11T09:01:00.028Z,12.16
2022-10-11T09:02:00.149Z,12.02
2022-10-11T09:03:07.908Z,12.04
2022-10-11T09:04:01.005Z,12.13
2022-10-11T09:04:59.961Z,12.11
2022-10-11T09:05:59.961Z,12.13
2022-10-11T09:07:04.588Z,12.13
2022-10-11T09:08:00.959Z,12.11
2022-10-11T09:08:59.950Z,12.23
2022-10-11T09:10:00.643Z,12.34
2022-10-11T09:10:59.898Z,12.44
2022-10-11T09:11:59.908Z,12.45
2022-10-11T09:12:59.870Z,12.46
2022-10-11T09:13:59.901Z,12.42
2022-10-11T09:14:59.856Z,12.41
2022-10-11T09:15:59.830Z,12.46
2022-10-11T09:16:59.834Z,12.51
2022-10-11T09:17:59.818Z,12.57
2022-10-11T09:18:59.801Z,12.62
2022-10-11T09:19:59.812Z,12.71
2022-10-11T09:20:59.774Z,12.71
2022-10-11T09:21:59.762Z,12.63
2022-10-11T09:22:59.753Z,12.70
2022-10-11T09:23:59.752Z,12.82
2022-10-11T09:24:59.772Z,12.85
2022-10-11T09:25:59.742Z,12.93
2022-10-11T09:26:59.714Z,12.99
2022-10-11T09:28:02.876Z,12.92
2022-10-11T09:29:01.440Z,12.99
2022-10-11T09:29:59.683Z,13.14
2022-10-11T09:30:59.738Z,13.15
2022-10-11T09:31:59.662Z,13.20
2022-10-11T09:32:59.644Z,13.14
2022-10-11T09:33:59.624Z,13.09
2022-10-11T09:34:59.634Z,13.11
2022-10-11T09:35:59.635Z,13.18
2022-10-11T09:36:59.617Z,13.20
2022-10-11T09:37:59.585Z,13.21
2022-10-11T09:39:04.249Z,13.29
2022-10-11T09:40:00.597Z,13.21
2022-10-11T09:40:59.545Z,13.22
2022-10-11T09:41:59.574Z,13.25
2022-10-11T09:42:59.523Z,13.32
2022-10-11T09:43:59.517Z,13.41
2022-10-11T09:44:59.506Z,13.51
2022-10-11T09:45:59.498Z,13.47
2022-10-11T09:46:59.489Z,13.61
2022-10-11T09:47:59.520Z,13.65
2022-10-11T09:48:59.475Z,13.61
2022-10-11T09:49:59.455Z,13.62
2022-10-11T09:50:59.436Z,13.61
2022-10-11T09:51:59.531Z,13.58
2022-10-11T09:52:59.416Z,13.37
2022-10-11T09:53:59.441Z,13.38
2022-10-11T09:54:59.409Z,13.55
2022-10-11T09:55:59.381Z,13.65
2022-10-11T09:56:59.373Z,13.69
2022-10-11T09:57:59.398Z,13.65
2022-10-11T09:58:59.396Z,13.55
2022-10-11T09:59:59.339Z,13.49
2022-10-11T10:01:02.766Z,13.52
2022-10-11T10:02:00.474Z,13.61
2022-10-11T10:02:59.324Z,13.70
2022-10-11T10:03:59.299Z,13.74
2022-10-11T10:04:59.310Z,13.79
2022-10-11T10:05:59.293Z,13.91
2022-10-11T10:06:59.262Z,14.04
2022-10-11T10:08:04.089Z,14.17
2022-10-11T10:09:00.235Z,14.28
2022-10-11T10:09:59.223Z,14.24
2022-10-11T10:10:59.675Z,14.17
2022-10-11T10:11:59.264Z,14.20
2022-10-11T10:12:59.202Z,14.16
2022-10-11T10:13:59.218Z,14.07
2022-10-11T10:14:59.164Z,14.07
2022-10-11T10:15:59.179Z,14.02
2022-10-11T10:16:59.189Z,14.12
2022-10-11T10:17:59.145Z,14.24
2022-10-11T10:18:59.132Z,14.37
2022-10-11T10:19:59.115Z,14.38
2022-10-11T10:20:59.138Z,14.28
2022-10-11T10:21:59.099Z,14.21
2022-10-11T10:22:59.094Z,14.12
2022-10-11T10:23:59.127Z,14.21
2022-10-11T10:24:59.066Z,14.32
2022-10-11T10:25:59.045Z,14.42
2022-10-11T10:26:59.045Z,14.34
2022-10-11T10:27:59.044Z,14.47
2022-10-11T10:28:59.189Z,14.42
2022-10-11T10:29:58.995Z,14.34
2022-10-11T10:30:58.989Z,14.35
2022-10-11T10:32:13.995Z,14.44
2022-10-11T10:33:00.000Z,14.49
2022-10-11T10:33:58.976Z,14.44
2022-10-11T10:34:58.935Z,14.53
2022-10-11T10:35:58.946Z,14.60
2022-10-11T10:36:58.905Z,14.68
2022-10-11T10:37:58.902Z,14.69
2022-10-11T10:38:58.927Z,14.80
2022-10-11T10:39:58.898Z,14.88
2022-10-11T10:40:58.885Z,14.84
2022-10-11T10:41:58.877Z,14.75
2022-10-11T10:42:58.845Z,14.81
2022-10-11T10:43:58.839Z,14.88
2022-10-11T10:44:58.842Z,14.74
2022-10-11T10:45:58.809Z,14.72
2022-10-11T10:46:58.793Z,14.75
2022-10-11T10:47:58.790Z,14.83
2022-10-11T10:49:41.572Z,14.81
2022-10-11T10:49:59.790Z,14.83
2022-10-11T10:50:58.751Z,14.88
2022-10-11T10:51:58.742Z,15.01
2022-10-11T10:52:58.720Z,14.95
2022-10-11T10:53:58.784Z,15.01
2022-10-11T10:54:58.701Z,15.13
2022-10-11T10:55:58.710Z,15.19
2022-10-11T10:56:58.690Z,15.15
2022-10-11T10:57:58.690Z,15.01
2022-10-11T10:58:58.664Z,14.88
2022-10-11T10:59:58.647Z,14.94
2022-10-11T11:00:58.632Z,14.95
2022-10-11T11:02:06.765Z,14.98
2022-10-11T11:02:59.762Z,15.01
2022-10-11T11:03:58.603Z,15.08
2022-10-11T11:05:58.571Z,14.94
2022-10-11T11:06:58.610Z,14.99
2022-10-11T11:07:58.551Z,14.98
2022-10-11T11:08:58.584Z,15.06
2022-10-11T11:09:58.535Z,15.02
2022-10-11T11:10:58.513Z,14.95
2022-10-11T11:11:58.494Z,14.91
2022-10-11T11:12:58.494Z,14.98
2022-10-11T11:13:58.513Z,15.08
2022-10-11T11:14:58.504Z,15.12
2022-10-11T11:15:58.461Z,15.06
2022-10-11T11:16:58.486Z,15.09
2022-10-11T11:17:58.436Z,15.03
2022-10-11T11:18:58.420Z,15.06
2022-10-11T11:19:58.415Z,15.12
2022-10-11T11:20:58.435Z,15.05
2022-10-11T11:21:58.396Z,14.88
2022-10-11T11:22:58.375Z,14.74
2022-10-11T11:23:58.431Z,14.83
2022-10-11T11:24:58.356Z,14.98
2022-10-11T11:25:58.346Z,15.08
2022-10-11T11:26:58.368Z,15.13
2022-10-11T11:27:58.311Z,15.13
2022-10-11T11:28:58.317Z,15.21
2022-10-11T11:29:58.309Z,15.05
2022-10-11T11:30:58.287Z,15.02
2022-10-11T11:31:58.369Z,15.05
2022-10-11T11:32:58.289Z,15.06
2022-10-11T11:33:58.248Z,15.08
2022-10-11T11:34:58.297Z,15.09
2022-10-11T11:35:58.227Z,15.08
2022-10-11T11:36:58.209Z,15.12
2022-10-11T11:38:03.847Z,15.20
2022-10-11T11:38:59.212Z,15.03
2022-10-11T11:39:58.193Z,15.05
2022-10-11T11:40:58.173Z,15.20
2022-10-11T11:41:58.150Z,15.30
2022-10-11T11:42:58.140Z,15.35
2022-10-11T11:43:58.160Z,15.28
2022-10-11T11:44:58.125Z,15.17
2022-10-11T11:45:58.107Z,15.08
2022-10-11T11:46:58.254Z,15.23
2022-10-11T11:47:58.081Z,15.38
2022-10-11T11:48:58.071Z,15.42
2022-10-11T11:49:58.108Z,15.38
2022-10-11T11:50:58.062Z,15.48
2022-10-11T11:51:58.025Z,15.60
2022-10-11T11:52:58.085Z,15.57
2022-10-11T11:53:58.023Z,15.56
2022-10-11T11:55:01.473Z,15.46
2022-10-11T11:55:59.055Z,15.41
2022-10-11T11:56:58.025Z,15.42
2022-10-11T11:57:57.998Z,15.33
2022-10-11T11:58:58.005Z,15.35
2022-10-11T11:59:58.007Z,15.43
2022-10-11T12:00:57.975Z,15.51
2022-10-11T12:01:58.062Z,15.52
2022-10-11T12:02:57.931Z,15.52
2022-10-11T12:03:57.916Z,15.57
2022-10-11T12:04:57.928Z,15.36
2022-10-11T12:05:57.904Z,15.17
2022-10-11T12:07:14.972Z,15.26
2022-10-11T12:07:58.890Z,15.31
2022-10-11T12:08:57.933Z,15.30
2022-10-11T12:09:57.846Z,15.36
2022-10-11T12:10:57.838Z,15.46
2022-10-11T12:11:57.817Z,15.57
2022-10-11T12:12:57.829Z,15.61
2022-10-11T12:13:57.786Z,15.61
2022-10-11T12:14:57.789Z,15.66
2022-10-11T12:15:57.758Z,15.54
2022-10-11T12:16:57.752Z,15.57
2022-10-11T12:17:57.765Z,15.49
2022-10-11T12:18:57.770Z,15.45
2022-10-11T12:19:57.709Z,15.52
2022-10-11T12:20:58.429Z,15.57
2022-10-11T12:21:57.707Z,15.57
2022-10-11T12:22:57.696Z,15.63
2022-10-11T12:23:57.700Z,15.64
2022-10-11T12:24:57.658Z,15.61
2022-10-11T12:25:57.660Z,15.67
2022-10-11T12:26:57.649Z,15.67
2022-10-11T12:27:57.643Z,15.72
2022-10-11T12:28:57.612Z,15.76
2022-10-11T12:29:57.631Z,15.79
2022-10-11T12:30:57.605Z,15.76
2022-10-11T12:31:57.591Z,15.72
2022-10-11T12:32:57.578Z,15.76
2022-10-11T12:33:57.554Z,15.82
2022-10-11T12:34:57.545Z,15.85
2022-10-11T12:35:57.562Z,15.85
2022-10-11T12:36:57.522Z,15.85
2022-10-11T12:37:57.531Z,15.81
2022-10-11T12:38:57.497Z,15.78
2022-10-11T12:39:57.498Z,15.74
2022-10-11T12:40:57.482Z,15.72
2022-10-11T12:41:57.547Z,15.68
2022-10-11T12:42:57.444Z,15.63
2022-10-11T12:43:57.442Z,15.63
2022-10-11T12:44:57.597Z,15.66
2022-10-11T12:45:57.427Z,15.61
2022-10-11T12:46:57.433Z,15.49
2022-10-11T12:47:57.480Z,15.59
2022-10-11T12:48:57.467Z,15.64
2022-10-11T12:49:57.384Z,15.72
2022-10-11T12:51:00.827Z,15.78
2022-10-11T12:51:58.358Z,15.78
2022-10-11T12:52:57.396Z,15.72
2022-10-11T12:54:14.738Z,15.68
2022-10-11T12:54:58.321Z,15.68
2022-10-11T12:55:57.299Z,15.68
2022-10-11T12:56:58.384Z,15.70
2022-10-11T12:57:57.288Z,15.67
2022-10-11T12:58:57.317Z,15.63
2022-10-11T12:59:57.257Z,15.56
2022-10-11T13:00:57.299Z,15.56
2022-10-11T13:01:57.240Z,15.60
2022-10-11T13:02:57.259Z,15.64